Terminal Aerodrome Forecast
Issued by NWS Wilmington, OH

Current Version | Previous Version | Text Only | Print | Product List | Glossary Off
Versions: 1 2 3 4 5 6 7 8 9 10 11 12 13 14 15 16

000
FTUS41 KILN 101126
TAFILN
TAF
KILN 101126Z 1012/1112 26010KT P6SM BKN022
     FM101215 23012KT P6SM SCT025
     FM101500 23015G22KT P6SM BKN090
     FM102300 23010KT P6SM BKN040 OVC120
     FM110600 27005KT P6SM SCT015 BKN150=

USA.gov is the U.S. government's official web portal to all federal, state and local government web resources and services.